Time;durP1;ratioP1;P1;durP2;ratioP2;P2;SDS_P1;SDS_P2;PMS_P1;PMS_P2;Temp;Humidity;BMP_temperature;BMP_pressure;BME280_temperature;BME280_humidity;BME280_pressure;Samples;Min_cycle;Max_cycle;Signal;HPM_P1;HPM_P2
2022/09/22 00:01:19;;;;;;;;;16.67;16.67;;;;;12.12;66.05;101833.44;5080070;27;46881;-78
2022/09/22 00:03:48;;;;;;;;;16.00;15.67;;;;;12.13;66.48;101837.81;5080660;27;45468;-78
2022/09/22 00:06:26;;;;;;;;;16.00;15.33;;;;;12.09;66.36;101820.47;5080314;28;45443;-78
2022/09/22 00:08:59;;;;;;;;;17.33;16.33;;;;;12.08;66.57;101829.44;5080229;27;45646;-78
2022/09/22 00:11:27;;;;;;;;;17.00;16.33;;;;;12.05;66.65;101827.91;5078989;28;46373;-78
2022/09/22 00:14:03;;;;;;;;;16.00;16.00;;;;;12.02;66.41;101835.34;5079601;28;45488;-78
2022/09/22 00:16:32;;;;;;;;;15.33;15.00;;;;;11.96;66.63;101819.03;5085883;27;45362;-78
2022/09/22 00:18:58;;;;;;;;;14.33;14.33;;;;;11.97;66.75;101825.16;5084830;27;45542;-78
2022/09/22 00:21:26;;;;;;;;;17.00;16.00;;;;;11.94;66.97;101830.84;5079851;27;46502;-78
2022/09/22 00:23:53;;;;;;;;;18.67;17.33;;;;;11.94;66.80;101833.50;5079705;27;45306;-78
2022/09/22 00:26:21;;;;;;;;;14.67;14.00;;;;;11.92;67.24;101835.47;5079970;27;45321;-78
2022/09/22 00:28:48;;;;;;;;;16.67;15.67;;;;;11.85;67.50;101820.13;5079938;27;45327;-78
2022/09/22 00:31:16;;;;;;;;;15.67;15.67;;;;;11.85;67.73;101825.44;5078240;28;47399;-78
2022/09/22 00:33:41;;;;;;;;;15.33;15.33;;;;;11.87;67.84;101818.13;5064711;28;45795;-78
2022/09/22 00:36:08;;;;;;;;;12.00;11.33;;;;;11.90;67.33;101816.97;5080162;27;45338;-78
2022/09/22 00:38:33;;;;;;;;;17.00;15.00;;;;;11.83;67.56;101806.09;5078446;28;46511;-78
2022/09/22 00:41:00;;;;;;;;;17.00;16.33;;;;;11.78;67.52;101797.75;5078241;28;47433;-78
2022/09/22 00:43:29;;;;;;;;;16.00;16.00;;;;;11.86;67.80;101815.63;5078418;28;45318;-78
2022/09/22 00:46:02;;;;;;;;;17.33;17.33;;;;;11.80;68.00;101810.91;5079709;27;45482;-78
2022/09/22 00:48:30;;;;;;;;;15.33;14.67;;;;;11.73;67.89;101794.72;5082601;27;45380;-78
2022/09/22 00:50:59;;;;;;;;;11.00;10.33;;;;;11.72;67.93;101809.88;5083065;27;45531;-78
2022/09/22 00:53:24;;;;;;;;;14.00;12.33;;;;;11.80;68.14;101816.25;5083073;27;45449;-78
2022/09/22 00:55:58;;;;;;;;;16.00;16.00;;;;;11.78;68.08;101820.88;5083585;28;45419;-78
2022/09/22 00:58:36;;;;;;;;;15.67;15.00;;;;;11.72;68.14;101819.69;5083367;27;45320;-78
2022/09/22 01:01:02;;;;;;;;;16.00;15.00;;;;;11.72;68.45;101820.53;5069636;28;46272;-78
2022/09/22 01:03:28;;;;;;;;;15.00;14.00;;;;;11.68;68.16;101821.84;5081956;28;45340;-78
2022/09/22 01:05:57;;;;;;;;;15.00;14.00;;;;;11.69;68.23;101828.81;5083001;27;45497;-78
2022/09/22 01:08:24;;;;;;;;;13.67;13.00;;;;;11.64;68.30;101809.81;5082697;27;45288;-78
2022/09/22 01:10:53;;;;;;;;;14.33;14.33;;;;;11.65;68.49;101818.63;5083224;27;45222;-78
2022/09/22 01:13:53;;;;;;;;;12.00;12.00;;;;;11.53;68.39;101810.91;5083087;27;45346;-78
2022/09/22 01:16:37;;;;;;;;;12.67;12.67;;;;;11.56;68.63;101820.41;5075735;27;45326;-78
2022/09/22 01:19:15;;;;;;;;;13.00;13.00;;;;;11.53;68.86;101812.72;5086374;27;46224;-78
2022/09/22 01:21:56;;;;;;;;;12.67;12.67;;;;;11.48;68.79;101810.50;5082902;27;45402;-78
2022/09/22 01:24:45;;;;;;;;;12.33;11.33;;;;;11.47;69.08;101809.66;5082734;27;45309;-78
2022/09/22 01:27:28;;;;;;;;;12.33;11.33;;;;;11.44;69.29;101804.66;5082788;28;45571;-78
2022/09/22 01:30:18;;;;;;;;;13.67;12.33;;;;;11.42;69.27;101814.63;5080983;28;47216;-78
2022/09/22 01:33:10;;;;;;;;;13.67;13.67;;;;;11.38;69.66;101797.31;5082641;27;45687;-78
2022/09/22 01:35:43;;;;;;;;;13.33;12.33;;;;;11.40;69.68;101813.94;5070592;28;45479;-78
2022/09/22 01:38:31;;;;;;;;;15.00;13.67;;;;;11.37;69.69;101795.63;5081560;28;45350;-77
2022/09/22 01:41:06;;;;;;;;;13.00;12.33;;;;;11.35;69.58;101792.28;5081812;28;46243;-78
2022/09/22 01:43:50;;;;;;;;;12.67;12.67;;;;;11.32;69.87;101796.06;5082126;27;45306;-78
2022/09/22 01:46:33;;;;;;;;;14.67;14.67;;;;;11.25;70.14;101787.03;5081952;28;45464;-78
2022/09/22 01:49:01;;;;;;;;;16.33;15.33;;;;;11.23;69.90;101791.69;5082261;27;45276;-78
2022/09/22 01:51:33;;;;;;;;;16.00;13.33;;;;;11.22;69.85;101790.84;5082294;27;45885;-78
2022/09/22 01:54:04;;;;;;;;;12.67;12.67;;;;;11.26;70.16;101793.19;5080382;27;48744;-78
2022/09/22 01:56:33;;;;;;;;;16.00;14.67;;;;;11.23;70.33;101794.34;5081938;27;45283;-78
2022/09/22 01:59:03;;;;;;;;;14.33;12.67;;;;;11.17;70.16;101792.28;5081332;27;45283;-78
2022/09/22 02:01:36;;;;;;;;;12.00;12.00;;;;;11.18;70.07;101791.28;5081356;27;45319;-78
2022/09/22 02:04:10;;;;;;;;;12.00;12.00;;;;;11.22;70.64;101798.81;5081371;27;46183;-78
2022/09/22 02:07:06;;;;;;;;;13.00;13.00;;;;;11.12;70.34;101782.09;5081597;27;45336;-78
2022/09/22 02:09:34;;;;;;;;;12.00;11.33;;;;;11.15;70.25;101792.44;5050807;28;45429;-78
2022/09/22 02:12:02;;;;;;;;;13.00;13.00;;;;;11.16;70.35;101791.44;5081745;27;45354;-78
2022/09/22 02:14:28;;;;;;;;;12.67;11.33;;;;;11.13;70.37;101788.28;5081039;28;45495;-78
2022/09/22 02:16:53;;;;;;;;;13.00;11.33;;;;;11.05;70.28;101781.03;5092414;27;45287;-78
2022/09/22 02:19:26;;;;;;;;;11.00;10.00;;;;;11.01;70.46;101785.81;5082801;27;45308;-78
2022/09/22 02:21:52;;;;;;;;;11.00;11.00;;;;;10.94;70.47;101779.44;5080574;28;47349;-78
2022/09/22 02:24:36;;;;;;;;;14.33;12.00;;;;;10.99;70.79;101788.63;5081974;27;46475;-78
2022/09/22 02:27:15;;;;;;;;;12.00;12.00;;;;;10.96;71.07;101783.59;5082128;27;45378;-78
2022/09/22 02:29:45;;;;;;;;;12.33;12.33;;;;;10.98;70.64;101788.78;5081830;27;45442;-78
2022/09/22 02:32:15;;;;;;;;;14.67;14.00;;;;;10.93;70.78;101783.91;5060336;28;46308;-78
2022/09/22 02:34:42;;;;;;;;;10.67;10.67;;;;;10.78;70.19;101762.34;5073939;28;47105;-78
2022/09/22 02:37:19;;;;;;;;;12.00;12.00;;;;;10.91;70.38;101779.72;5079924;28;45288;-78
2022/09/22 02:40:22;;;;;;;;;12.00;12.00;;;;;10.96;70.59;101788.94;5080060;28;45346;-78
2022/09/22 02:43:08;;;;;;;;;13.00;11.00;;;;;10.91;70.64;101772.59;5071106;28;47937;-78
2022/09/22 02:46:04;;;;;;;;;11.00;11.00;;;;;10.92;70.56;101790.22;5079405;28;47673;-77
2022/09/22 02:48:46;;;;;;;;;12.67;12.67;;;;;10.87;70.83;101773.91;5078199;27;45450;-78
2022/09/22 02:51:13;;;;;;;;;12.67;12.67;;;;;10.85;70.77;101771.38;5081234;27;45339;-78
2022/09/22 02:53:39;;;;;;;;;12.67;11.67;;;;;10.86;70.70;101773.03;5080757;27;45272;-78
2022/09/22 02:56:04;;;;;;;;;13.00;11.00;;;;;10.84;70.74;101775.00;5080818;27;46457;-78
2022/09/22 02:58:30;;;;;;;;;12.67;12.00;;;;;10.74;70.81;101758.28;5080878;27;45433;-78
2022/09/22 03:00:55;;;;;;;;;11.00;11.00;;;;;10.83;70.85;101783.13;5080942;27;45314;-78
2022/09/22 03:03:20;;;;;;;;;9.00;9.00;;;;;10.82;70.62;101765.53;5080367;28;55843;-78
2022/09/22 03:05:46;;;;;;;;;9.67;9.67;;;;;10.77;71.04;101765.97;5079432;28;47274;-78
2022/09/22 03:08:11;;;;;;;;;12.67;12.67;;;;;10.71;70.86;101764.75;5081880;27;45243;-78
2022/09/22 03:10:36;;;;;;;;;11.00;10.00;;;;;10.62;71.15;101747.03;5079577;28;50652;-79
2022/09/22 03:13:02;;;;;;;;;11.33;11.33;;;;;10.62;71.25;101755.00;5081104;27;45213;-78
2022/09/22 03:15:28;;;;;;;;;10.00;9.33;;;;;10.66;71.46;101760.88;5080778;27;45538;-78
2022/09/22 03:17:53;;;;;;;;;14.00;12.00;;;;;10.57;71.69;101746.66;5092276;27;45395;-78
2022/09/22 03:20:19;;;;;;;;;13.67;13.00;;;;;10.54;71.61;101749.63;5081224;27;45976;-78
2022/09/22 03:22:44;;;;;;;;;9.33;9.00;;;;;10.49;71.78;101742.09;5079330;28;46239;-78
2022/09/22 03:25:10;;;;;;;;;10.00;10.00;;;;;10.55;71.84;101754.78;5081197;27;45322;-78
2022/09/22 03:27:36;;;;;;;;;12.00;12.00;;;;;10.55;71.92;101756.59;5081227;28;45309;-78
2022/09/22 03:30:03;;;;;;;;;10.00;10.00;;;;;10.45;71.84;101741.53;5080450;27;45433;-78
2022/09/22 03:32:29;;;;;;;;;12.00;12.00;;;;;10.44;72.14;101746.97;5081180;27;45432;-78
2022/09/22 03:34:55;;;;;;;;;10.00;10.00;;;;;10.45;72.00;101743.34;5081222;27;45418;-78
2022/09/22 03:37:20;;;;;;;;;10.67;10.00;;;;;10.50;72.30;101750.91;5081618;27;45286;-79
2022/09/22 03:39:46;;;;;;;;;14.00;13.00;;;;;10.46;72.13;101748.53;5081182;27;45299;-78
2022/09/22 03:42:11;;;;;;;;;13.00;12.33;;;;;10.44;72.05;101741.66;5081190;27;45516;-78
2022/09/22 03:44:36;;;;;;;;;11.67;11.67;;;;;10.43;72.20;101739.97;5080696;27;45472;-78
2022/09/22 03:47:02;;;;;;;;;13.00;12.00;;;;;10.35;72.25;101733.59;5079058;28;45886;-78
2022/09/22 03:49:27;;;;;;;;;12.00;12.00;;;;;10.45;72.41;101744.19;5080676;27;45696;-78
2022/09/22 03:51:53;;;;;;;;;12.67;11.00;;;;;10.45;72.34;101749.50;5078008;28;47210;-78
2022/09/22 03:54:19;;;;;;;;;10.67;10.67;;;;;10.40;72.29;101740.28;5080682;27;46390;-78
2022/09/22 03:56:44;;;;;;;;;13.67;13.67;;;;;10.43;72.30;101740.84;5080598;28;45585;-78
2022/09/22 03:59:10;;;;;;;;;12.00;11.00;;;;;10.42;72.45;101744.44;5081776;27;45198;-78
2022/09/22 04:01:35;;;;;;;;;11.33;10.67;;;;;10.38;72.38;101732.44;5081138;28;45422;-78
2022/09/22 04:04:01;;;;;;;;;15.00;15.00;;;;;10.37;72.29;101736.09;5079607;28;47187;-78
2022/09/22 04:06:26;;;;;;;;;12.67;12.67;;;;;10.42;71.83;101743.63;5080754;27;45412;-78
2022/09/22 04:08:52;;;;;;;;;12.00;11.00;;;;;10.35;72.30;101733.59;5080632;27;45318;-78
2022/09/22 04:11:17;;;;;;;;;13.67;13.33;;;;;10.31;72.38;101723.41;5080502;27;45295;-79
2022/09/22 04:13:42;;;;;;;;;13.67;12.00;;;;;10.28;72.63;101729.00;5080430;28;46498;-79
2022/09/22 04:16:07;;;;;;;;;11.33;11.33;;;;;10.26;72.53;101726.50;5083682;27;45280;-78
2022/09/22 04:18:35;;;;;;;;;13.67;13.67;;;;;10.28;72.32;101727.19;5089295;27;45382;-78
2022/09/22 04:21:00;;;;;;;;;12.33;12.33;;;;;10.32;72.15;101741.00;5095834;27;46512;-79
2022/09/22 04:23:26;;;;;;;;;12.67;12.67;;;;;10.23;72.48;101729.44;5079178;27;45290;-79
2022/09/22 04:25:52;;;;;;;;;15.00;12.67;;;;;10.26;72.49;101733.66;5080889;27;45300;-78
2022/09/22 04:28:17;;;;;;;;;12.33;11.00;;;;;10.23;72.42;101746.25;5078983;28;45440;-78
2022/09/22 04:30:43;;;;;;;;;11.33;11.33;;;;;10.19;72.34;101736.91;5080021;28;45335;-78
2022/09/22 04:33:12;;;;;;;;;14.00;12.67;;;;;10.17;72.48;101744.16;5078647;28;48026;-79
2022/09/22 04:35:37;;;;;;;;;11.67;11.67;;;;;10.04;73.33;101715.28;5080489;28;45656;-78
2022/09/22 04:38:02;;;;;;;;;13.67;11.33;;;;;10.06;73.00;101718.63;5080529;27;45376;-78
2022/09/22 04:40:28;;;;;;;;;16.33;13.00;;;;;10.08;72.76;101727.28;5078501;28;47273;-78
2022/09/22 04:42:54;;;;;;;;;14.00;13.00;;;;;10.04;72.58;101720.59;5079975;27;45412;-78
2022/09/22 04:45:19;;;;;;;;;13.33;13.33;;;;;10.04;72.98;101722.41;5078594;28;45339;-78
2022/09/22 04:47:46;;;;;;;;;12.33;12.33;;;;;10.07;73.11;101738.06;5080476;27;45294;-78
2022/09/22 04:50:12;;;;;;;;;11.33;11.33;;;;;10.03;72.92;101724.22;5078656;28;46638;-78
2022/09/22 04:52:37;;;;;;;;;14.75;14.50;;;;;10.04;72.77;101725.06;5079704;27;45853;-78
2022/09/22 04:55:03;;;;;;;;;13.00;12.25;;;;;10.06;73.05;101723.94;5080143;27;45250;-78
2022/09/22 04:57:29;;;;;;;;;11.67;11.67;;;;;10.09;72.89;101728.97;5064792;28;45312;-79
2022/09/22 04:59:54;;;;;;;;;14.67;13.33;;;;;10.10;72.75;101735.13;5079467;27;45508;-78
2022/09/22 05:02:19;;;;;;;;;13.67;11.67;;;;;10.08;73.04;101734.41;5079449;27;45418;-78
2022/09/22 05:04:45;;;;;;;;;15.50;15.00;;;;;9.98;72.86;101724.69;5078299;28;45368;-78
2022/09/22 05:07:10;;;;;;;;;16.33;16.33;;;;;10.06;72.76;101739.06;5080068;27;45767;-79
2022/09/22 05:09:35;;;;;;;;;15.33;15.33;;;;;10.01;72.67;101726.22;5080354;27;45410;-79
2022/09/22 05:12:01;;;;;;;;;20.25;18.25;;;;;9.96;72.27;101715.16;5081135;27;46466;-78
2022/09/22 05:14:28;;;;;;;;;11.33;9.67;;;;;9.95;72.19;101727.63;5080478;27;45286;-78
2022/09/22 05:16:53;;;;;;;;;14.00;13.33;;;;;9.85;72.58;101727.66;5091609;27;45364;-78
2022/09/22 05:19:19;;;;;;;;;16.33;15.00;;;;;9.78;72.63;101736.34;5082536;27;45368;-78
2022/09/22 05:21:45;;;;;;;;;17.00;16.00;;;;;9.69;73.05;101725.63;5080443;27;46150;-78
2022/09/22 05:24:10;;;;;;;;;19.00;17.00;;;;;9.77;72.74;101730.22;5078568;28;45375;-78
2022/09/22 05:26:35;;;;;;;;;21.00;18.67;;;;;9.77;72.68;101732.88;5079282;28;45343;-78
2022/09/22 05:29:01;;;;;;;;;15.33;15.33;;;;;9.82;72.99;101737.75;5080414;27;45559;-78
2022/09/22 05:31:26;;;;;;;;;17.33;17.33;;;;;9.83;72.76;101742.06;5079432;27;45213;-78
2022/09/22 05:33:51;;;;;;;;;17.33;16.00;;;;;9.83;73.09;101745.56;5080690;27;45267;-79
2022/09/22 05:36:17;;;;;;;;;19.33;18.33;;;;;9.78;72.75;101741.66;5083851;27;45472;-78
2022/09/22 05:38:42;;;;;;;;;19.67;16.67;;;;;9.79;72.71;101743.34;5081615;28;46126;-78
2022/09/22 05:41:07;;;;;;;;;21.33;19.00;;;;;9.73;73.08;101747.41;5083489;27;45587;-78
2022/09/22 05:43:33;;;;;;;;;18.75;18.00;;;;;9.77;73.04;101743.47;5084089;27;45350;-78
2022/09/22 05:45:58;;;;;;;;;19.00;16.00;;;;;9.79;73.01;101746.81;5084222;27;45310;-78
2022/09/22 05:48:23;;;;;;;;;17.33;17.33;;;;;9.76;72.75;101748.94;5083225;27;45256;-79
2022/09/22 05:50:49;;;;;;;;;14.00;14.00;;;;;9.75;72.84;101745.44;5083422;27;45326;-78
2022/09/22 05:53:15;;;;;;;;;19.00;18.50;;;;;9.74;72.60;101746.44;5084047;27;45282;-78
2022/09/22 05:55:41;;;;;;;;;15.33;15.33;;;;;9.73;72.97;101750.88;5084324;27;45359;-78
2022/09/22 05:58:08;;;;;;;;;18.33;15.33;;;;;9.77;73.09;101763.88;5084583;27;45546;-78
2022/09/22 06:00:34;;;;;;;;;19.67;18.67;;;;;9.76;73.16;101764.88;5070643;28;48271;-78
2022/09/22 06:02:59;;;;;;;;;17.00;16.33;;;;;9.71;73.12;101754.66;5072925;28;45402;-79
2022/09/22 06:05:25;;;;;;;;;14.67;14.67;;;;;9.79;73.10;101767.22;5077963;27;45434;-78
2022/09/22 06:08:02;;;;;;;;;18.33;18.33;;;;;9.82;73.16;101774.91;5083258;28;45476;-78
2022/09/22 06:10:35;;;;;;;;;19.33;17.00;;;;;9.82;73.28;101772.25;5078596;28;47504;-78
2022/09/22 06:13:03;;;;;;;;;19.00;17.00;;;;;9.83;73.12;101773.94;5082781;28;45393;-78
2022/09/22 06:15:32;;;;;;;;;16.50;16.00;;;;;9.76;73.79;101767.53;5080166;28;45490;-78
2022/09/22 06:17:58;;;;;;;;;19.00;17.25;;;;;9.74;73.05;101770.31;5094235;27;46184;-78
2022/09/22 06:20:23;;;;;;;;;21.00;19.50;;;;;9.78;73.02;101784.13;5081303;28;47409;-78
2022/09/22 06:22:48;;;;;;;;;18.00;16.50;;;;;9.73;73.68;101763.34;5085541;27;45313;-78
2022/09/22 06:25:14;;;;;;;;;22.00;19.50;;;;;9.70;73.63;101769.75;5086405;27;45248;-78
2022/09/22 06:27:40;;;;;;;;;19.50;18.00;;;;;9.82;73.51;101777.56;5085013;28;46120;-78
2022/09/22 06:30:07;;;;;;;;;19.75;18.75;;;;;9.84;73.71;101779.09;5083364;28;47048;-77
2022/09/22 06:32:33;;;;;;;;;21.25;18.75;;;;;9.82;73.94;101772.25;5084417;27;45354;-77
2022/09/22 06:35:01;;;;;;;;;24.50;20.25;;;;;9.78;74.09;101765.53;5082644;27;45546;-78
2022/09/22 06:37:27;;;;;;;;;15.00;15.00;;;;;9.88;74.11;101774.34;5082136;28;45394;-79
2022/09/22 06:39:53;;;;;;;;;19.25;18.00;;;;;9.88;74.22;101774.34;5083111;27;45606;-78
2022/09/22 06:42:18;;;;;;;;;18.00;18.00;;;;;9.77;74.38;101755.91;5089659;27;45487;-78
2022/09/22 06:44:44;;;;;;;;;18.75;18.75;;;;;9.85;74.39;101766.66;5087343;28;45335;-78
2022/09/22 06:47:11;;;;;;;;;18.25;17.25;;;;;9.77;74.52;101753.25;5088201;27;45657;-78
2022/09/22 06:49:36;;;;;;;;;22.50;19.25;;;;;9.78;74.71;101745.16;5105145;27;47704;-78
2022/09/22 06:52:02;;;;;;;;;22.67;18.67;;;;;9.85;75.04;101743.59;5083212;27;45247;-77
2022/09/22 06:54:27;;;;;;;;;16.75;15.25;;;;;9.92;75.45;101748.31;5082023;27;45538;-75
2022/09/22 06:56:52;;;;;;;;;18.67;18.67;;;;;9.97;75.30;101752.22;5080207;28;47628;-76
2022/09/22 06:59:18;;;;;;;;;16.33;15.00;;;;;10.01;75.61;101752.78;5081188;27;45323;-76
2022/09/22 07:01:44;;;;;;;;;17.25;17.25;;;;;10.14;75.80;101759.56;5080963;27;45242;-76
2022/09/22 07:04:11;;;;;;;;;20.25;20.00;;;;;10.16;75.71;101749.63;5081248;27;45188;-76
2022/09/22 07:06:38;;;;;;;;;22.00;20.50;;;;;10.27;75.88;101756.56;5080871;27;45623;-76
2022/09/22 07:09:04;;;;;;;;;18.75;17.75;;;;;10.34;75.69;101762.97;5079445;28;47315;-76
2022/09/22 07:11:29;;;;;;;;;15.33;14.33;;;;;10.41;75.75;101764.06;5080521;27;45332;-76
2022/09/22 07:13:57;;;;;;;;;14.67;14.67;;;;;10.39;75.79;101749.25;5079822;28;45335;-76
2022/09/22 07:16:24;;;;;;;;;16.33;15.33;;;;;10.48;75.91;101770.47;5084285;27;45218;-76
2022/09/22 07:18:55;;;;;;;;;18.33;17.33;;;;;10.58;76.05;101764.28;5078051;28;46850;-77
2022/09/22 07:21:23;;;;;;;;;27.75;24.25;;;;;10.64;75.64;101766.34;5079454;27;45353;-76
2022/09/22 07:23:50;;;;;;;;;34.50;30.25;;;;;10.76;75.49;101774.09;5080827;27;45326;-76
2022/09/22 07:26:20;;;;;;;;;42.25;33.75;;;;;10.85;74.90;101765.22;5080333;28;45784;-76
2022/09/22 07:28:50;;;;;;;;;21.75;15.75;;;;;10.90;75.63;101749.66;5081653;27;45389;-75
2022/09/22 07:31:16;;;;;;;;;23.00;19.67;;;;;11.01;75.44;101748.56;5079207;28;45240;-76
2022/09/22 07:33:43;;;;;;;;;17.67;17.67;;;;;11.21;75.14;101759.06;5079907;28;46333;-76
2022/09/22 07:36:12;;;;;;;;;21.67;18.33;;;;;11.24;75.06;101748.97;5078235;28;45983;-76
2022/09/22 07:38:39;;;;;;;;;31.67;26.00;;;;;11.39;74.55;101760.84;5079328;27;46612;-76
2022/09/22 07:41:08;;;;;;;;;30.33;26.67;;;;;11.40;74.33;101752.72;5079454;27;45362;-76
2022/09/22 07:43:34;;;;;;;;;26.67;21.33;;;;;11.52;74.43;101747.16;5079873;27;45247;-77
2022/09/22 07:46:00;;;;;;;;;25.33;22.33;;;;;11.64;74.60;101753.06;5095027;27;46206;-76
2022/09/22 07:48:36;;;;;;;;;20.33;18.67;;;;;11.77;74.20;101753.47;5079843;27;45490;-76
2022/09/22 07:51:08;;;;;;;;;19.67;18.67;;;;;11.86;74.05;101743.72;5079844;27;45371;-76
2022/09/22 07:53:34;;;;;;;;;18.00;17.00;;;;;11.96;73.68;101751.56;5081265;27;45291;-76
2022/09/22 07:56:12;;;;;;;;;20.33;19.33;;;;;12.07;73.22;101750.50;5079603;27;45453;-76
2022/09/22 07:58:46;;;;;;;;;19.00;18.67;;;;;12.16;72.98;101749.56;5079566;27;46065;-76
2022/09/22 08:01:13;;;;;;;;;26.00;24.00;;;;;12.22;73.11;101748.06;5078251;28;45210;-76
2022/09/22 08:03:38;;;;;;;;;22.33;22.00;;;;;12.35;73.13;101759.13;5079901;28;45470;-77
2022/09/22 08:06:09;;;;;;;;;29.33;27.00;;;;;12.33;73.02;101746.94;5079652;27;45413;-77
2022/09/22 08:08:37;;;;;;;;;29.33;25.33;;;;;12.48;73.26;101755.97;5078326;28;46371;-78
2022/09/22 08:11:07;;;;;;;;;19.00;18.67;;;;;12.54;72.88;101753.69;5078189;28;46146;-77
2022/09/22 08:13:36;;;;;;;;;19.00;16.33;;;;;12.55;72.25;101734.00;5079639;27;45327;-77
2022/09/22 08:16:03;;;;;;;;;13.00;13.00;;;;;12.69;71.84;101741.38;5082503;27;45309;-78
2022/09/22 08:18:32;;;;;;;;;16.33;16.33;;;;;12.84;71.12;101757.56;5078361;28;46382;-78
2022/09/22 08:21:00;;;;;;;;;14.00;14.00;;;;;12.91;70.47;101752.41;5077780;27;45500;-78
2022/09/22 08:23:26;;;;;;;;;18.33;17.00;;;;;13.00;70.26;101748.72;5077573;28;45383;-80
2022/09/22 08:25:52;;;;;;;;;14.00;13.33;;;;;13.06;70.19;101741.09;5077917;28;47158;-79
2022/09/22 08:28:17;;;;;;;;;18.33;17.00;;;;;13.11;70.39;101734.25;5078964;27;45405;-78
2022/09/22 08:30:46;;;;;;;;;21.33;21.33;;;;;13.25;70.92;101740.75;5078897;28;53109;-79
2022/09/22 08:33:12;;;;;;;;;33.00;30.00;;;;;13.28;70.48;101738.72;5078078;27;45791;-79
2022/09/22 08:35:37;;;;;;;;;34.25;30.25;;;;;13.34;70.60;101738.06;5078939;27;45567;-79
2022/09/22 08:38:03;;;;;;;;;33.75;31.00;;;;;13.40;70.72;101745.41;5079186;27;45520;-83
2022/09/22 08:40:30;;;;;;;;;45.00;36.75;;;;;13.41;70.48;101736.38;5070145;28;45506;-82
2022/09/22 08:42:58;;;;;;;;;38.50;34.00;;;;;13.54;70.55;101748.41;5079045;27;45411;-80
2022/09/22 08:45:30;;;;;;;;;44.75;36.00;;;;;13.53;69.81;101738.75;5078372;27;45478;-79
2022/09/22 08:53:49;;;;;;;;;37.33;31.67;;;;;13.79;69.82;101735.00;5078726;28;45489;-81
2022/09/22 08:56:34;;;;;;;;;25.00;23.00;;;;;13.87;70.14;101741.19;5077189;28;47412;-79
2022/09/22 08:59:13;;;;;;;;;28.33;24.33;;;;;13.94;69.52;101740.47;5065066;28;45509;-80
2022/09/22 09:02:04;;;;;;;;;19.67;19.67;;;;;14.04;69.54;101740.28;5075068;28;45391;-79
2022/09/22 09:04:52;;;;;;;;;26.33;22.33;;;;;14.11;69.25;101743.94;5077599;27;45387;-79
2022/09/22 09:07:24;;;;;;;;;21.00;18.00;;;;;14.16;69.69;101741.59;5078149;28;45313;-79
2022/09/22 09:10:01;;;;;;;;;20.33;19.00;;;;;14.25;69.19;101743.19;5079070;28;45432;-79
2022/09/22 09:12:39;;;;;;;;;17.67;17.67;;;;;14.34;68.54;101741.31;5080094;28;45481;-80
2022/09/22 09:15:07;;;;;;;;;29.00;25.00;;;;;14.43;68.43;101735.94;5082236;27;45420;-79
2022/09/22 09:17:38;;;;;;;;;23.33;22.33;;;;;14.47;68.49;101732.75;5087187;27;46608;-80
2022/09/22 09:20:12;;;;;;;;;13.67;13.67;;;;;14.61;68.36;101730.31;5082156;27;45449;-79
2022/09/22 09:22:42;;;;;;;;;16.00;15.00;;;;;14.66;67.75;101729.78;5082152;27;45361;-79
2022/09/22 09:25:23;;;;;;;;;13.00;12.00;;;;;14.75;67.59;101726.88;5080873;28;45299;-79
2022/09/22 09:27:56;;;;;;;;;11.67;11.67;;;;;14.82;67.30;101723.50;5084758;27;45345;-80
2022/09/22 09:30:21;;;;;;;;;14.00;14.00;;;;;14.99;67.17;101727.72;5084706;27;46148;-79
2022/09/22 09:32:51;;;;;;;;;18.00;18.00;;;;;15.13;66.71;101736.00;5081904;27;45499;-81
2022/09/22 09:35:25;;;;;;;;;21.00;18.33;;;;;15.26;66.48;101732.69;5082076;27;45441;-78
2022/09/22 09:37:54;;;;;;;;;23.00;19.67;;;;;15.33;66.47;101730.13;5080602;28;46074;-77
2022/09/22 09:40:20;;;;;;;;;22.00;21.00;;;;;15.45;66.23;101739.41;5081459;28;46148;-78
2022/09/22 09:42:55;;;;;;;;;18.33;17.67;;;;;15.57;65.88;101730.91;5082188;27;45256;-77
2022/09/22 09:45:30;;;;;;;;;6.00;6.00;;;;;15.73;64.03;101735.25;5077988;27;45602;-78
2022/09/22 09:48:21;;;;;;;;;71.75;60.00;;;;;15.94;64.15;101729.16;5080169;28;47041;-78
2022/09/22 09:50:46;;;;;;;;;30.33;26.33;;;;;16.10;63.19;101727.31;5080427;28;47063;-76
2022/09/22 09:53:30;;;;;;;;;6.00;6.00;;;;;16.27;62.51;101717.19;5081399;27;45290;-76
2022/09/22 09:55:55;;;;;;;;;4.67;4.67;;;;;16.45;61.86;101716.78;5079721;27;45573;-76
2022/09/22 10:01:07;;;;;;;;;4.67;4.67;;;;;16.77;61.29;101703.88;5081294;28;45408;-76
2022/09/22 10:03:35;;;;;;;;;6.33;6.33;;;;;16.96;61.59;101706.94;5080126;28;45816;-77
2022/09/22 10:06:10;;;;;;;;;6.67;6.67;;;;;17.18;60.94;101703.44;5081648;28;45250;-77
2022/09/22 10:08:48;;;;;;;;;5.67;5.67;;;;;17.31;60.59;101694.63;5081068;27;45381;-77
2022/09/22 10:11:14;;;;;;;;;3.67;2.00;;;;;17.50;59.03;101699.31;5079966;28;48103;-76
2022/09/22 10:13:42;;;;;;;;;5.67;5.00;;;;;17.66;59.06;101687.41;5081131;27;45341;-78
2022/09/22 10:16:19;;;;;;;;;4.33;4.33;;;;;17.89;58.30;101694.34;5085842;27;45667;-77
2022/09/22 10:18:45;;;;;;;;;6.33;6.33;;;;;18.04;57.80;101679.91;5085873;27;46824;-77
2022/09/22 10:21:17;;;;;;;;;3.67;3.67;;;;;18.28;57.48;101688.50;5079806;28;47049;-78
2022/09/22 10:23:53;;;;;;;;;8.33;8.00;;;;;18.39;55.95;101676.31;5081452;27;45397;-79
2022/09/22 10:26:26;;;;;;;;;8.67;7.00;;;;;18.59;56.25;101680.91;5079670;28;45279;-78
2022/09/22 10:29:19;;;;;;;;;59.25;46.00;;;;;18.79;55.59;101678.22;5081003;27;45316;-79
2022/09/22 10:32:14;;;;;;;;;16.33;14.00;;;;;18.94;55.27;101675.31;5064828;28;45709;-79
2022/09/22 10:34:49;;;;;;;;;10.00;8.33;;;;;19.15;53.84;101668.09;5080866;27;45363;-77
2022/09/22 10:37:24;;;;;;;;;31.33;27.67;;;;;19.22;53.64;101662.69;5081289;27;45295;-79
2022/09/22 10:39:51;;;;;;;;;28.33;26.33;;;;;19.23;52.87;101650.88;5080767;27;45334;-81
2022/09/22 10:42:35;;;;;;;;;9.00;9.00;;;;;19.25;52.45;101657.69;5080900;27;45550;-80
2022/09/22 10:45:02;;;;;;;;;6.67;6.67;;;;;19.36;52.15;101660.81;5079487;27;45395;-80
2022/09/22 10:47:52;;;;;;;;;19.33;18.00;;;;;19.43;51.78;101659.75;5074013;28;45610;-79
2022/09/22 10:50:34;;;;;;;;;34.67;29.33;;;;;19.53;51.56;101653.91;5077209;27;45626;-78
2022/09/22 10:53:26;;;;;;;;;6.33;6.33;;;;;19.67;50.83;101656.56;5079662;27;46067;-78
2022/09/22 10:56:38;;;;;;;;;4.00;4.00;;;;;19.86;50.48;101641.34;5078639;28;45362;-78
2022/09/22 10:59:31;;;;;;;;;3.00;2.33;;;;;19.94;50.68;101637.56;5037600;28;45519;-78
2022/09/22 11:02:16;;;;;;;;;2.00;2.00;;;;;20.07;49.10;101636.69;5080332;27;45392;-78
2022/09/22 11:04:48;;;;;;;;;2.00;2.00;;;;;20.16;48.35;101631.88;5080538;28;46268;-76
2022/09/22 11:13:33;;;;;;;;;1.33;1.33;;;;;20.52;48.61;101621.44;5080159;28;45216;-76
2022/09/22 11:16:16;;;;;;;;;3.00;3.00;;;;;20.62;47.51;101623.66;5067297;27;47013;-76
2022/09/22 11:18:48;;;;;;;;;4.00;4.00;;;;;20.72;46.66;101624.00;5080198;27;45270;-77
2022/09/22 11:21:42;;;;;;;;;1.33;1.33;;;;;20.81;46.54;101616.44;5078812;28;45482;-78
2022/09/22 11:24:26;;;;;;;;;2.67;2.67;;;;;20.86;45.51;101619.28;5078538;28;47249;-78
2022/09/22 11:26:56;;;;;;;;;4.00;3.00;;;;;20.98;45.39;101611.28;5079565;28;45553;-77
2022/09/22 11:29:49;;;;;;;;;4.33;2.67;;;;;21.09;45.28;101612.44;5079788;27;45349;-78
2022/09/22 11:32:39;;;;;;;;;10.67;10.67;;;;;21.26;45.73;101614.56;5067537;28;45390;-78
2022/09/22 11:35:31;;;;;;;;;2.33;2.00;;;;;21.42;45.60;101613.13;5080158;27;45363;-78
2022/09/22 11:38:18;;;;;;;;;5.00;2.00;;;;;21.53;44.64;101606.97;5065796;28;46336;-79
2022/09/22 11:41:07;;;;;;;;;3.00;3.00;;;;;21.68;44.66;101619.25;5079850;28;45392;-78
2022/09/22 11:43:55;;;;;;;;;3.00;3.00;;;;;21.82;44.44;101609.13;5078884;28;45469;-81